Time;durP1;ratioP1;P1;durP2;ratioP2;P2;SDS_P1;SDS_P2;PMS_P1;PMS_P2;Temp;Humidity;BMP_temperature;BMP_pressure;BME280_temperature;BME280_humidity;BME280_pressure;Samples;Min_cycle;Max_cycle;Signal;HPM_P1;HPM_P2
2023/10/23 00:01:38;;;;;;;9.35;5.10;;;;;;;1.30;99.72;100334.34;10291324;28;20034;-66
2023/10/23 00:06:40;;;;;;;9.48;6.18;;;;;;;1.25;99.77;100323.41;10274883;28;20042;-66
2023/10/23 00:11:43;;;;;;;10.52;6.43;;;;;;;1.28;99.61;100320.25;10247600;28;20035;-65
2023/10/23 00:16:45;;;;;;;23.33;10.48;;;;;;;1.28;100.00;100312.13;10274460;28;20426;-67
2023/10/23 00:21:47;;;;;;;18.60;9.75;;;;;;;1.25;99.90;100307.19;10280498;28;20030;-67
2023/10/23 00:26:50;;;;;;;18.45;8.32;;;;;;;1.24;100.00;100297.44;10295425;28;20548;-67
2023/10/23 00:32:01;;;;;;;14.68;7.80;;;;;;;1.25;100.00;100298.25;10264865;28;20035;-68
2023/10/23 00:37:13;;;;;;;14.20;6.38;;;;;;;1.20;100.00;100282.72;10235463;29;20043;-67
2023/10/23 00:42:31;;;;;;;10.02;5.50;;;;;;;1.09;100.00;100283.50;10250930;29;20059;-67
2023/10/23 00:47:33;;;;;;;10.25;5.00;;;;;;;1.16;100.00;100281.53;10252988;29;20058;-67
2023/10/23 00:52:46;;;;;;;12.70;5.97;;;;;;;1.18;100.00;100277.53;10275484;28;20126;-68
2023/10/23 00:57:48;;;;;;;7.80;5.03;;;;;;;1.18;100.00;100271.31;10284094;28;20043;-66
2023/10/23 01:02:51;;;;;;;9.10;4.50;;;;;;;1.18;100.00;100277.53;10279472;28;20116;-67
2023/10/23 01:07:55;;;;;;;9.45;4.88;;;;;;;1.20;100.00;100269.19;10251426;28;20061;-67
2023/10/23 01:13:01;;;;;;;10.15;5.28;;;;;;;1.21;100.00;100265.44;10263041;28;20036;-66
2023/10/23 01:18:04;;;;;;;9.82;5.05;;;;;;;1.15;100.00;100260.97;10265903;29;20050;-66
2023/10/23 01:23:08;;;;;;;8.73;4.80;;;;;;;1.19;100.00;100254.03;10283888;29;20043;-67
2023/10/23 01:28:10;;;;;;;9.85;4.80;;;;;;;1.24;100.00;100262.31;10261982;29;20452;-66
2023/10/23 01:33:12;;;;;;;8.77;4.53;;;;;;;1.24;100.00;100265.00;10248197;29;20042;-67
2023/10/23 01:38:15;;;;;;;9.43;4.80;;;;;;;1.19;100.00;100251.34;10265139;29;20047;-67
2023/10/23 01:43:19;;;;;;;8.80;4.30;;;;;;;1.25;100.00;100257.72;10271599;29;20050;-66
2023/10/23 01:48:22;;;;;;;6.75;4.22;;;;;;;1.21;100.00;100260.03;10279355;29;20255;-68
2023/10/23 01:53:26;;;;;;;11.75;4.90;;;;;;;1.27;100.00;100259.13;10268600;28;20035;-66
2023/10/23 01:58:33;;;;;;;9.82;4.72;;;;;;;1.25;100.00;100255.84;10225859;29;20043;-67
2023/10/23 02:03:45;;;;;;;9.57;4.82;;;;;;;1.16;100.00;100257.19;10264017;29;20427;-68
2023/10/23 02:08:47;;;;;;;11.57;4.88;;;;;;;1.23;100.00;100246.31;10242342;29;20156;-66
2023/10/23 02:13:49;;;;;;;9.18;4.18;;;;;;;1.24;100.00;100261.47;10247731;29;20031;-67
2023/10/23 02:18:51;;;;;;;8.38;4.25;;;;;;;1.22;99.97;100253.59;10264784;29;20042;-67
2023/10/23 02:23:54;;;;;;;9.30;5.05;;;;;;;1.27;100.00;100259.13;10262917;28;20263;-67
2023/10/23 02:28:57;;;;;;;8.50;4.40;;;;;;;1.15;99.60;100256.38;10247988;29;20057;-67
2023/10/23 02:34:02;;;;;;;9.80;5.07;;;;;;;1.25;100.00;100261.25;10275035;28;20422;-68
2023/10/23 02:39:04;;;;;;;10.05;4.53;;;;;;;1.16;99.97;100257.19;10277346;28;20058;-67
2023/10/23 02:44:10;;;;;;;7.30;4.05;;;;;;;1.21;99.84;100251.94;10259404;29;20039;-68
2023/10/23 02:49:16;;;;;;;6.50;3.47;;;;;;;1.14;100.00;100249.31;10275517;29;20035;-68
2023/10/23 02:54:21;;;;;;;8.57;4.78;;;;;;;1.14;100.00;100243.09;10279715;29;20065;-67
2023/10/23 02:59:26;;;;;;;8.70;3.95;;;;;;;1.08;100.00;100238.63;10278877;29;20131;-67
2023/10/23 03:04:38;;;;;;;6.88;3.72;;;;;;;1.10;100.00;100237.34;10219432;29;20047;-68
2023/10/23 03:09:44;;;;;;;6.72;3.55;;;;;;;1.11;100.00;100228.19;10246344;29;20039;-67
2023/10/23 03:14:50;;;;;;;9.68;4.40;;;;;;;1.14;100.00;100218.78;10255927;29;20043;-66
2023/10/23 03:19:53;;;;;;;7.53;4.00;;;;;;;1.08;100.00;100211.59;10247769;29;20424;-66
2023/10/23 03:24:55;;;;;;;5.85;4.05;;;;;;;1.05;100.00;100206.66;10279679;29;20039;-67
2023/10/23 03:29:57;;;;;;;5.97;3.63;;;;;;;1.00;100.00;100215.44;10277307;29;20457;-67
2023/10/23 03:35:00;;;;;;;8.43;3.58;;;;;;;1.01;100.00;100200.03;10282045;28;20042;-66
2023/10/23 03:40:02;;;;;;;5.38;3.80;;;;;;;1.10;100.00;100206.78;10286826;29;20585;-66
2023/10/23 03:45:05;;;;;;;8.05;3.83;;;;;;;1.07;100.00;100199.16;10268560;29;20046;-67
2023/10/23 03:50:08;;;;;;;6.47;4.00;;;;;;;0.98;100.00;100205.91;10266480;29;20039;-66
2023/10/23 03:55:10;;;;;;;4.45;3.33;;;;;;;0.95;100.00;100211.78;10238237;29;20070;-68
2023/10/23 04:00:14;;;;;;;6.53;3.70;;;;;;;0.94;100.00;100205.56;10270000;29;20050;-67
2023/10/23 04:05:16;;;;;;;7.20;3.83;;;;;;;1.04;100.00;100215.78;10251663;29;20035;-67
2023/10/23 04:10:20;;;;;;;4.78;3.38;;;;;;;0.99;100.00;100213.78;10284339;29;20038;-67
2023/10/23 04:15:23;;;;;;;5.07;3.20;;;;;;;1.05;100.00;100198.56;10286718;29;20039;-67
2023/10/23 04:20:29;;;;;;;5.60;3.50;;;;;;;1.13;100.00;100196.34;10270417;28;20039;-67
2023/10/23 04:25:31;;;;;;;6.85;4.57;;;;;;;1.18;100.00;100199.16;10282656;29;20047;-66
2023/10/23 04:30:35;;;;;;;6.15;4.20;;;;;;;1.15;100.00;100190.69;10286352;29;20047;-67
2023/10/23 04:35:37;;;;;;;10.00;3.63;;;;;;;1.27;100.00;100188.88;10265296;29;20439;-66
2023/10/23 04:40:42;;;;;;;10.18;4.30;;;;;;;1.27;100.00;100194.28;10284583;29;20039;-66
2023/10/23 04:45:45;;;;;;;8.05;4.35;;;;;;;1.30;100.00;100191.09;10283686;28;20058;-65
2023/10/23 04:50:48;;;;;;;14.35;5.25;;;;;;;1.31;100.00;100184.63;10285610;29;20423;-66
2023/10/23 04:55:50;;;;;;;8.15;3.78;;;;;;;1.30;100.00;100183.00;10283783;29;20050;-66
2023/10/23 05:00:52;;;;;;;10.52;4.93;;;;;;;1.37;100.00;100183.69;10283367;28;20087;-66
2023/10/23 05:05:55;;;;;;;15.85;4.93;;;;;;;1.36;100.00;100187.47;10284982;29;20050;-66
2023/10/23 05:11:07;;;;;;;13.15;5.18;;;;;;;1.32;100.00;100191.69;10282414;29;20043;-66
2023/10/23 05:16:12;;;;;;;13.05;5.32;;;;;;;1.34;100.00;100189.56;10279618;29;20043;-66
2023/10/23 05:21:14;;;;;;;8.00;4.45;;;;;;;1.43;100.00;100184.66;10270618;29;20447;-66
2023/10/23 05:26:18;;;;;;;12.13;4.93;;;;;;;1.38;100.00;100184.53;10243668;29;20035;-66
2023/10/23 05:31:21;;;;;;;10.18;4.28;;;;;;;1.47;100.00;100178.56;10261142;28;20058;-66
2023/10/23 05:36:24;;;;;;;8.13;3.90;;;;;;;1.44;100.00;100187.13;10281405;29;20051;-66
2023/10/23 05:41:26;;;;;;;11.00;3.97;;;;;;;1.56;100.00;100189.84;10231581;29;20534;-67
2023/10/23 05:46:28;;;;;;;7.70;4.22;;;;;;;1.55;100.00;100199.00;10255091;28;20046;-66
2023/10/23 05:51:31;;;;;;;6.72;4.07;;;;;;;1.64;100.00;100194.09;10279681;29;20548;-66
2023/10/23 05:56:33;;;;;;;8.95;4.63;;;;;;;1.60;100.00;100190.22;10263330;28;20043;-66
2023/10/23 06:01:36;;;;;;;8.23;4.13;;;;;;;1.58;100.00;100190.47;10309927;28;20051;-66
2023/10/23 06:06:38;;;;;;;8.23;3.88;;;;;;;1.66;100.00;100184.69;10286003;28;20419;-66
2023/10/23 06:11:41;;;;;;;8.35;3.80;;;;;;;1.73;100.00;100195.38;10265169;29;20035;-66
2023/10/23 06:16:43;;;;;;;5.60;3.30;;;;;;;1.74;100.00;100195.19;10265235;29;20039;-66
2023/10/23 06:21:45;;;;;;;7.32;4.63;;;;;;;1.72;100.00;100186.44;10254524;29;20039;-66
2023/10/23 06:26:47;;;;;;;6.63;3.78;;;;;;;1.75;100.00;100196.81;10304657;28;20046;-67
2023/10/23 06:31:49;;;;;;;7.18;4.00;;;;;;;1.75;100.00;100204.13;10300055;28;20035;-66
2023/10/23 06:36:52;;;;;;;5.30;3.35;;;;;;;1.92;100.00;100196.97;10292523;28;20043;-67
2023/10/23 06:41:54;;;;;;;5.80;3.40;;;;;;;1.95;100.00;100196.47;10255521;29;20053;-66
2023/10/23 06:46:56;;;;;;;6.78;3.47;;;;;;;1.93;100.00;100190.47;10246974;28;20043;-67
2023/10/23 06:51:59;;;;;;;5.00;3.42;;;;;;;2.07;100.00;100194.56;10279369;29;20128;-67
2023/10/23 06:57:06;;;;;;;9.60;3.63;;;;;;;2.13;100.00;100192.00;10266325;28;20050;-66
2023/10/23 07:02:09;;;;;;;5.97;2.95;;;;;;;2.13;100.00;100198.22;10281449;28;20043;-67
2023/10/23 07:07:11;;;;;;;5.95;3.40;;;;;;;2.08;99.45;100206.22;10234111;29;20039;-67
2023/10/23 07:12:13;;;;;;;7.13;3.40;;;;;;;2.18;99.55;100200.22;10272950;29;20046;-67
2023/10/23 07:17:15;;;;;;;5.30;3.33;;;;;;;2.24;98.74;100194.69;10263067;29;20039;-67
2023/10/23 07:22:17;;;;;;;3.65;1.80;;;;;;;2.27;98.84;100196.94;10288348;29;20046;-67
2023/10/23 07:27:19;;;;;;;5.45;3.28;;;;;;;2.36;98.39;100197.38;10269357;29;20062;-67
2023/10/23 07:32:22;;;;;;;4.45;3.13;;;;;;;2.24;97.67;100200.09;10287505;29;20043;-67
2023/10/23 07:37:24;;;;;;;5.50;3.40;;;;;;;2.22;97.93;100206.81;10288211;29;20047;-67
2023/10/23 07:42:26;;;;;;;10.00;3.20;;;;;;;2.30;98.04;100193.75;10283609;28;20046;-67
2023/10/23 07:47:28;;;;;;;7.13;3.67;;;;;;;2.28;98.17;100203.16;10285459;28;20435;-67
2023/10/23 07:52:31;;;;;;;5.32;3.17;;;;;;;2.29;98.61;100208.34;10286404;29;20534;-67
2023/10/23 07:57:33;;;;;;;8.35;3.60;;;;;;;2.29;97.84;100207.53;10272364;29;20050;-67
2023/10/23 08:02:36;;;;;;;9.45;3.75;;;;;;;2.40;98.24;100212.06;10254468;29;20035;-68
2023/10/23 08:07:38;;;;;;;4.70;3.40;;;;;;;2.49;97.45;100207.94;10285027;29;20042;-68
2023/10/23 08:12:40;;;;;;;5.60;3.42;;;;;;;2.60;97.28;100214.38;10284315;29;20050;-69
2023/10/23 08:17:42;;;;;;;11.00;3.75;;;;;;;2.64;96.63;100212.88;10268069;29;20039;-68
2023/10/23 08:22:46;;;;;;;7.63;4.18;;;;;;;2.70;96.52;100220.84;10250769;29;20499;-68
2023/10/23 08:27:48;;;;;;;5.82;3.72;;;;;;;2.76;95.96;100221.75;10286754;28;20442;-67
2023/10/23 08:32:50;;;;;;;6.05;3.20;;;;;;;2.78;94.81;100218.81;10268671;29;20042;-67
2023/10/23 08:37:52;;;;;;;4.80;2.78;;;;;;;2.83;94.50;100224.34;10284468;29;20039;-67
2023/10/23 08:42:54;;;;;;;5.68;3.33;;;;;;;2.94;93.99;100234.31;10285643;29;20070;-67
2023/10/23 08:47:57;;;;;;;4.18;3.13;;;;;;;2.93;94.10;100222.66;10285317;29;20043;-67
2023/10/23 08:53:07;;;;;;;7.78;4.05;;;;;;;2.90;93.02;100227.75;10268156;29;20043;-67
2023/10/23 08:58:13;;;;;;;4.88;2.85;;;;;;;3.07;93.28;100230.50;10268101;29;20042;-67
2023/10/23 09:03:15;;;;;;;9.82;4.38;;;;;;;3.20;92.44;100225.63;10262823;29;20220;-67
2023/10/23 09:08:18;;;;;;;4.35;3.40;;;;;;;3.29;91.82;100216.00;10267647;29;20039;-67
2023/10/23 09:13:23;;;;;;;3.53;2.80;;;;;;;3.27;91.55;100225.47;10267209;29;20039;-67
2023/10/23 09:18:25;;;;;;;4.25;2.78;;;;;;;3.32;91.66;100217.44;10284289;29;20047;-67
2023/10/23 09:23:28;;;;;;;2.60;2.40;;;;;;;3.34;91.04;100223.44;10261148;29;20043;-67
2023/10/23 09:28:30;;;;;;;6.20;2.83;;;;;;;3.35;90.86;100216.94;10249753;29;20058;-67
2023/10/23 09:33:33;;;;;;;5.63;3.33;;;;;;;3.39;91.03;100218.09;10282597;28;20069;-68
2023/10/23 09:38:39;;;;;;;2.90;2.58;;;;;;;3.27;90.91;100214.63;10250632;29;20117;-67
2023/10/23 09:43:47;;;;;;;5.07;2.50;;;;;;;3.26;92.50;100212.97;10278138;29;20039;-67
2023/10/23 09:48:51;;;;;;;3.38;2.30;;;;;;;3.16;93.22;100216.34;10283162;29;20053;-68
2023/10/23 09:54:00;;;;;;;3.65;2.78;;;;;;;3.29;92.87;100216.00;10275347;28;20035;-69
2023/10/23 09:59:04;;;;;;;2.53;2.10;;;;;;;3.26;93.24;100224.63;10270956;29;20047;-67
2023/10/23 10:04:51;;;;;;;3.35;1.60;;;;;;;3.33;93.05;100221.81;10288516;28;20070;-68
2023/10/23 10:09:54;;;;;;;2.88;1.80;;;;;;;3.28;93.01;100221.69;10235183;29;20047;-67
2023/10/23 10:14:57;;;;;;;2.30;1.83;;;;;;;3.18;93.39;100219.63;10263849;29;20039;-67
2023/10/23 10:20:00;;;;;;;1.88;1.50;;;;;;;3.21;93.58;100219.13;10270873;29;20127;-67
2023/10/23 10:25:04;;;;;;;3.83;2.10;;;;;;;3.27;94.94;100215.44;10290103;28;20065;-67
2023/10/23 10:30:41;;;;;;;3.83;2.00;;;;;;;3.26;94.63;100224.63;10256121;29;20051;-67
2023/10/23 10:35:49;;;;;;;3.28;2.28;;;;;;;3.23;94.96;100219.72;10262243;29;20035;-68
2023/10/23 10:41:17;;;;;;;3.17;1.77;;;;;;;3.25;95.84;100220.28;10277208;29;20507;-68
2023/10/23 10:46:20;;;;;;;;;;;;;;;3.19;96.07;100225.88;10264357;28;20040;-67
2023/10/23 10:51:27;;;;;;;2.60;1.70;;;;;;;3.19;96.93;100226.69;10277272;29;19930;-68
2023/10/23 10:56:30;;;;;;;2.50;1.20;;;;;;;3.39;95.60;100220.00;10239382;29;20423;-67
2023/10/23 11:01:32;;;;;;;2.10;1.65;;;;;;;3.63;94.20;100224.19;10277892;29;20047;-68
2023/10/23 11:06:35;;;;;;;2.10;1.33;;;;;;;3.69;90.86;100222.41;10277139;29;20039;-68
2023/10/23 11:11:37;;;;;;;2.45;1.58;;;;;;;3.87;89.87;100217.56;10278550;29;20043;-68
2023/10/23 11:16:40;;;;;;;2.20;1.50;;;;;;;4.06;89.09;100212.69;10280329;29;20035;-68
2023/10/23 11:21:43;;;;;;;2.50;1.60;;;;;;;3.91;87.66;100210.56;10243301;29;20085;-67
2023/10/23 11:26:45;;;;;;;3.05;1.75;;;;;;;3.74;87.46;100217.88;10260216;29;20381;-68
2023/10/23 11:31:49;;;;;;;2.35;1.90;;;;;;;3.86;87.92;100218.63;10255815;28;20046;-67
2023/10/23 11:36:51;;;;;;;2.58;1.77;;;;;;;3.86;87.92;100221.34;10270791;29;20050;-67
2023/10/23 11:41:56;;;;;;;2.42;1.60;;;;;;;3.91;87.64;100226.84;10263044;29;20414;-67
2023/10/23 11:46:59;;;;;;;2.90;1.85;;;;;;;3.83;87.54;100230.00;10247588;29;20047;-67
2023/10/23 11:52:02;;;;;;;3.60;1.63;;;;;;;3.81;87.07;100226.66;10279712;29;20031;-67
2023/10/23 11:57:05;;;;;;;2.72;0.98;;;;;;;3.68;87.89;100228.91;10265506;29;20059;-67
2023/10/23 12:02:07;;;;;;;3.10;1.90;;;;;;;3.79;87.27;100228.81;10286840;29;20039;-68
2023/10/23 12:07:09;;;;;;;6.35;2.10;;;;;;;3.87;87.02;100236.56;10287095;29;20053;-67
2023/10/23 12:12:11;;;;;;;1.60;1.48;;;;;;;3.67;83.13;100249.78;10284547;29;20043;-69
2023/10/23 12:17:14;;;;;;;4.47;1.77;;;;;;;3.65;82.22;100251.94;10284730;29;20035;-69
2023/10/23 12:22:16;;;;;;;3.22;1.88;;;;;;;3.60;82.01;100254.53;10286651;29;20050;-67
2023/10/23 12:27:18;;;;;;;2.05;1.27;;;;;;;3.53;81.03;100259.31;10272316;29;20470;-68
2023/10/23 12:32:20;;;;;;;3.22;2.05;;;;;;;3.55;80.90;100259.88;10273063;28;20040;-70
2023/10/23 12:37:27;;;;;;;3.08;1.73;;;;;;;3.55;80.99;100258.00;10263246;29;20043;-69
2023/10/23 12:42:30;;;;;;;1.73;1.42;;;;;;;3.54;80.22;100253.63;10277106;29;20518;-67
2023/10/23 12:47:34;;;;;;;1.73;1.25;;;;;;;3.44;80.01;100260.75;10265761;29;20047;-69
2023/10/23 12:52:38;;;;;;;2.25;1.75;;;;;;;3.31;80.25;100254.59;10271192;29;20039;-69
2023/10/23 12:57:41;;;;;;;1.50;0.88;;;;;;;3.34;79.10;100258.69;10266347;29;20031;-67
2023/10/23 13:02:44;;;;;;;2.47;1.23;;;;;;;3.27;80.69;100263.44;10275439;29;20039;-69
2023/10/23 13:07:46;;;;;;;1.83;1.27;;;;;;;3.27;82.11;100269.66;10280660;28;20047;-69
2023/10/23 13:12:48;;;;;;;4.05;1.13;;;;;;;3.20;82.23;100268.19;10278738;29;20046;-68
2023/10/23 13:17:53;;;;;;;1.98;1.50;;;;;;;3.13;82.50;100271.03;10279481;29;20082;-68
2023/10/23 13:22:55;;;;;;;1.85;1.20;;;;;;;3.15;83.85;100266.19;10280667;28;20045;-68
2023/10/23 13:27:58;;;;;;;1.35;1.20;;;;;;;3.13;83.04;100273.75;10280960;29;20058;-68
2023/10/23 13:33:00;;;;;;;2.38;1.10;;;;;;;3.13;82.40;100281.88;10265095;29;20226;-68
2023/10/23 13:38:03;;;;;;;3.08;1.35;;;;;;;3.08;83.02;100280.94;10258846;29;20046;-67
2023/10/23 13:43:06;;;;;;;2.92;1.15;;;;;;;3.03;83.47;100289.81;10273902;28;20035;-68
2023/10/23 13:48:08;;;;;;;2.03;1.00;;;;;;;3.03;83.83;100290.63;10263842;28;20128;-67
2023/10/23 13:53:10;;;;;;;1.38;1.27;;;;;;;3.01;84.15;100295.47;10276918;28;20046;-67
2023/10/23 13:58:12;;;;;;;1.70;1.20;;;;;;;2.99;84.42;100302.19;10285012;28;20422;-67
2023/10/23 14:03:14;;;;;;;1.70;1.10;;;;;;;3.00;84.23;100306.56;10281240;28;20050;-69
2023/10/23 14:08:17;;;;;;;3.00;1.35;;;;;;;2.91;84.62;100300.66;10259182;29;20632;-69
2023/10/23 14:13:20;;;;;;;4.38;1.95;;;;;;;2.96;85.33;100310.81;10262923;29;20047;-68
2023/10/23 14:18:22;;;;;;;1.73;1.25;;;;;;;2.99;84.79;100315.75;10278829;28;20050;-70
2023/10/23 14:23:24;;;;;;;1.50;0.90;;;;;;;2.97;84.58;100310.56;10271032;28;20031;-71
2023/10/23 14:28:27;;;;;;;5.10;0.80;;;;;;;2.88;84.34;100322.81;10271602;29;20058;-69
2023/10/23 14:33:29;;;;;;;2.45;1.17;;;;;;;2.85;84.14;100319.78;10250920;28;20040;-69
2023/10/23 14:38:32;;;;;;;1.42;0.98;;;;;;;2.86;84.04;100327.66;10253105;29;20042;-69
2023/10/23 14:43:35;;;;;;;1.67;0.98;;;;;;;2.87;84.92;100317.66;10257583;29;20422;-69
2023/10/23 14:48:37;;;;;;;2.35;1.35;;;;;;;2.90;85.07;100326.13;10237633;29;20047;-68
2023/10/23 14:53:40;;;;;;;3.00;1.55;;;;;;;2.87;84.64;100328.50;10273821;28;20130;-68
2023/10/23 14:58:42;;;;;;;2.35;1.10;;;;;;;2.91;85.21;100324.22;10233475;28;20047;-70
2023/10/23 15:03:44;;;;;;;5.57;1.40;;;;;;;2.84;84.51;100346.06;10263122;28;20407;-69
2023/10/23 15:08:46;;;;;;;3.17;1.40;;;;;;;2.80;85.66;100333.22;10280799;28;20050;-71
2023/10/23 15:13:49;;;;;;;2.67;1.58;;;;;;;2.81;85.35;100345.72;10275409;28;20038;-69
2023/10/23 15:18:52;;;;;;;2.90;1.73;;;;;;;2.76;85.13;100345.56;10267869;29;20163;-69
2023/10/23 15:23:54;;;;;;;1.88;1.27;;;;;;;2.77;85.45;100349.94;10250870;28;20039;-69
2023/10/23 15:28:56;;;;;;;3.08;1.58;;;;;;;2.77;85.03;100361.59;10287979;28;20055;-69
2023/10/23 15:33:58;;;;;;;3.25;1.73;;;;;;;2.69;85.00;100376.34;10253468;28;20028;-70
2023/10/23 15:39:01;;;;;;;3.67;1.40;;;;;;;2.71;85.10;100376.09;10289101;28;20031;-70
2023/10/23 15:44:03;;;;;;;2.90;1.70;;;;;;;2.61;84.95;100376.69;10278462;28;20043;-69
2023/10/23 15:49:05;;;;;;;2.50;1.40;;;;;;;2.55;83.71;100391.16;10263958;28;20058;-69
2023/10/23 15:54:07;;;;;;;1.73;1.10;;;;;;;2.54;83.88;100394.09;10296373;28;20035;-69
2023/10/23 15:59:10;;;;;;;2.75;1.35;;;;;;;2.49;83.07;100385.88;10267798;28;20035;-69
2023/10/23 16:04:12;;;;;;;2.50;1.63;;;;;;;2.45;83.08;100399.06;10250832;28;20043;-69
2023/10/23 16:09:14;;;;;;;1.85;1.15;;;;;;;2.49;82.61;100391.28;10254661;28;20078;-68
2023/10/23 16:14:17;;;;;;;2.78;1.45;;;;;;;2.37;82.97;100388.56;10292278;28;20050;-69
2023/10/23 16:19:19;;;;;;;1.92;1.30;;;;;;;2.29;83.06;100405.16;10285666;28;20038;-68
2023/10/23 16:24:21;;;;;;;2.85;1.50;;;;;;;2.28;81.40;100406.22;10267220;29;20039;-69
2023/10/23 16:29:23;;;;;;;2.15;1.35;;;;;;;2.19;80.02;100419.25;10269809;28;20051;-69
2023/10/23 16:34:25;;;;;;;2.50;1.30;;;;;;;2.16;80.64;100417.00;10270427;28;20034;-71
2023/10/23 16:39:30;;;;;;;2.40;1.23;;;;;;;2.10;81.34;100420.66;10301354;28;20050;-70
2023/10/23 16:44:32;;;;;;;3.05;1.40;;;;;;;2.18;80.55;100414.06;10272712;29;20115;-70
2023/10/23 16:49:34;;;;;;;1.55;1.05;;;;;;;2.14;80.57;100427.25;10266818;29;20412;-69
2023/10/23 16:54:37;;;;;;;3.10;0.85;;;;;;;2.11;80.52;100430.41;10258205;29;20035;-70
2023/10/23 16:59:39;;;;;;;2.30;1.13;;;;;;;2.03;81.21;100436.97;10254055;29;20039;-70
2023/10/23 17:04:41;;;;;;;2.53;1.23;;;;;;;2.10;81.36;100440.41;10283971;29;20036;-69
2023/10/23 17:09:44;;;;;;;2.45;1.65;;;;;;;2.05;81.77;100437.56;10256208;28;20422;-69
2023/10/23 17:14:46;;;;;;;2.13;1.48;;;;;;;2.00;82.06;100445.53;10258119;28;20035;-69
2023/10/23 17:19:48;;;;;;;3.45;1.67;;;;;;;1.97;82.38;100448.72;10281450;28;20058;-67
2023/10/23 17:24:51;;;;;;;3.65;1.48;;;;;;;1.88;82.81;100463.59;10276248;28;20035;-70
2023/10/23 17:29:53;;;;;;;3.42;1.52;;;;;;;1.78;82.88;100466.88;10267683;28;20058;-68
2023/10/23 17:34:55;;;;;;;5.68;1.67;;;;;;;1.77;83.53;100464.38;10258425;28;20042;-68
2023/10/23 17:39:59;;;;;;;3.50;1.58;;;;;;;1.73;84.22;100480.22;10254285;28;20047;-68
2023/10/23 17:45:02;;;;;;;3.28;1.58;;;;;;;1.67;84.09;100488.44;10261315;28;20035;-67
2023/10/23 17:50:05;;;;;;;3.22;1.60;;;;;;;1.46;83.53;100490.53;10269221;28;20070;-67
2023/10/23 17:55:08;;;;;;;2.15;0.98;;;;;;;1.38;82.43;100493.53;10279180;28;20031;-68
2023/10/23 18:00:10;;;;;;;2.53;1.60;;;;;;;1.34;82.25;100503.16;10269591;28;20450;-67
2023/10/23 18:05:14;;;;;;;3.03;1.40;;;;;;;1.48;82.38;100510.06;10260528;29;20046;-68
2023/10/23 18:10:19;;;;;;;2.20;1.20;;;;;;;1.28;81.75;100511.34;10293384;28;20053;-68
2023/10/23 18:15:22;;;;;;;1.42;1.00;;;;;;;1.15;81.72;100514.97;10288984;28;20051;-69
2023/10/23 18:20:27;;;;;;;4.40;1.38;;;;;;;1.05;81.85;100531.72;10269709;28;20035;-69
2023/10/23 18:25:30;;;;;;;2.53;1.52;;;;;;;0.96;82.26;100535.72;10249345;28;20043;-68
2023/10/23 18:30:32;;;;;;;3.40;1.42;;;;;;;0.94;82.13;100542.41;10269501;28;20058;-67
2023/10/23 18:35:35;;;;;;;3.58;2.28;;;;;;;1.00;81.75;100545.03;10275455;28;20035;-68
2023/10/23 18:40:40;;;;;;;1.90;1.10;;;;;;;0.87;80.66;100551.41;10279602;28;20043;-68
2023/10/23 18:45:44;;;;;;;4.68;1.75;;;;;;;0.81;79.93;100557.66;10248192;28;20675;-68
2023/10/23 18:50:46;;;;;;;2.47;1.65;;;;;;;0.67;79.92;100571.47;10264918;29;20050;-68
2023/10/23 18:55:48;;;;;;;4.38;1.50;;;;;;;0.55;79.76;100565.97;10267797;28;20626;-70
2023/10/23 19:00:51;;;;;;;3.88;1.48;;;;;;;0.60;79.52;100577.75;10276642;28;20042;-69
2023/10/23 19:05:56;;;;;;;4.53;1.98;;;;;;;0.57;79.37;100570.09;10292109;28;20477;-71
2023/10/23 19:10:59;;;;;;;4.20;1.88;;;;;;;0.45;79.09;100576.38;10260652;28;20491;-69
2023/10/23 19:16:04;;;;;;;2.70;1.50;;;;;;;0.27;78.77;100577.09;10260940;29;20039;-69
2023/10/23 19:21:11;;;;;;;4.65;2.15;;;;;;;0.19;79.40;100580.91;10270870;28;20050;-69
2023/10/23 19:26:15;;;;;;;3.53;1.65;;;;;;;0.21;79.85;100584.19;10267552;28;20066;-70
2023/10/23 19:31:21;;;;;;;4.20;1.63;;;;;;;0.20;80.25;100582.56;10276398;28;20055;-70
2023/10/23 19:36:24;;;;;;;2.85;1.88;;;;;;;0.20;80.38;100587.94;10227067;28;20643;-70
2023/10/23 19:41:36;;;;;;;2.33;1.60;;;;;;;0.13;80.51;100595.22;10281900;28;20534;-69
2023/10/23 19:46:41;;;;;;;10.23;3.03;;;;;;;0.08;79.76;100589.66;10270036;29;20042;-70
2023/10/23 19:51:44;;;;;;;3.72;1.90;;;;;;;-0.02;79.97;100605.44;10241712;28;20422;-70
2023/10/23 19:56:47;;;;;;;3.55;2.15;;;;;;;-0.01;80.01;100610.63;10281015;28;20053;-69
2023/10/23 20:01:49;;;;;;;3.78;2.00;;;;;;;-0.07;79.94;100605.25;10275857;28;20062;-69
2023/10/23 20:06:52;;;;;;;2.72;2.15;;;;;;;-0.06;80.02;100609.63;10268980;29;20043;-70
2023/10/23 20:11:54;;;;;;;3.33;2.08;;;;;;;-0.15;80.13;100610.91;10271378;28;20039;-70
2023/10/23 20:16:56;;;;;;;3.35;2.05;;;;;;;-0.16;80.49;100614.63;10274442;28;20038;-70
2023/10/23 20:21:58;;;;;;;3.45;1.85;;;;;;;-0.23;80.01;100616.50;10286925;28;20043;-70
2023/10/23 20:27:01;;;;;;;4.65;2.45;;;;;;;-0.18;80.36;100611.28;10268992;28;20047;-69
2023/10/23 20:32:03;;;;;;;4.07;2.13;;;;;;;-0.25;80.46;100605.09;10290421;28;20039;-68
2023/10/23 20:37:05;;;;;;;3.35;2.50;;;;;;;-0.24;80.43;100617.53;10312285;28;20507;-69
2023/10/23 20:42:08;;;;;;;3.22;2.10;;;;;;;-0.15;80.30;100616.28;10277685;28;20039;-68
2023/10/23 20:47:14;;;;;;;5.30;2.58;;;;;;;-0.18;79.70;100622.09;10284940;28;20051;-68
2023/10/23 20:52:16;;;;;;;6.10;2.55;;;;;;;-0.23;79.94;100628.13;10250437;29;20047;-68
2023/10/23 20:57:19;;;;;;;3.50;2.50;;;;;;;-0.24;80.12;100623.75;10296626;28;20042;-69
2023/10/23 21:02:21;;;;;;;5.13;3.00;;;;;;;-0.33;79.71;100631.25;10264843;28;20043;-69
2023/10/23 21:07:23;;;;;;;4.25;3.22;;;;;;;-0.23;79.86;100636.22;10293968;28;20058;-69
2023/10/23 21:12:25;;;;;;;5.63;3.47;;;;;;;-0.19;79.79;100626.66;10275674;29;20039;-69
2023/10/23 21:17:28;;;;;;;5.05;3.38;;;;;;;-0.21;79.89;100639.53;10283110;28;20050;-69
2023/10/23 21:22:30;;;;;;;6.60;3.50;;;;;;;-0.33;80.21;100641.22;10281530;28;20043;-68
2023/10/23 21:27:32;;;;;;;5.93;3.80;;;;;;;-0.21;80.69;100644.09;10284831;28;20046;-69
2023/10/23 21:32:34;;;;;;;6.00;3.58;;;;;;;-0.25;80.85;100632.91;10248226;28;20046;-69
2023/10/23 21:37:36;;;;;;;6.05;3.63;;;;;;;-0.25;81.05;100635.59;10289118;28;20035;-69
2023/10/23 21:42:39;;;;;;;6.40;4.18;;;;;;;-0.26;81.25;100646.59;10266513;28;20507;-69
2023/10/23 21:47:41;;;;;;;5.65;4.38;;;;;;;-0.23;80.87;100651.56;10262725;29;20039;-71
2023/10/23 21:52:44;;;;;;;5.68;4.00;;;;;;;-0.26;81.02;100651.97;10264161;29;20054;-71
2023/10/23 21:57:46;;;;;;;4.35;2.97;;;;;;;-0.19;80.62;100660.88;10261860;29;20042;-68
2023/10/23 22:02:49;;;;;;;6.22;3.65;;;;;;;-0.34;80.88;100661.97;10279999;28;20043;-69
2023/10/23 22:07:52;;;;;;;7.60;3.83;;;;;;;-0.31;81.41;100664.22;10265284;29;20430;-69
2023/10/23 22:12:56;;;;;;;5.25;2.90;;;;;;;-0.39;81.26;100680.59;10267801;29;20031;-69
2023/10/23 22:17:58;;;;;;;4.45;2.97;;;;;;;-0.44;81.71;100677.72;10247366;29;20043;-69
2023/10/23 22:23:00;;;;;;;4.93;3.20;;;;;;;-0.44;81.93;100674.19;10273374;29;20070;-69
2023/10/23 22:28:02;;;;;;;4.45;3.47;;;;;;;-0.49;81.73;100685.59;10265864;28;20522;-70
2023/10/23 22:33:06;;;;;;;5.07;2.80;;;;;;;-0.43;82.31;100690.16;10265898;28;20046;-71
2023/10/23 22:38:12;;;;;;;4.60;3.28;;;;;;;-0.40;82.27;100684.34;10288877;28;20050;-70
2023/10/23 22:43:15;;;;;;;4.43;3.00;;;;;;;-0.40;82.12;100683.50;10262429;29;20046;-68
2023/10/23 22:48:17;;;;;;;4.25;3.00;;;;;;;-0.44;82.56;100682.28;10275747;29;20043;-68
2023/10/23 22:53:21;;;;;;;4.78;3.13;;;;;;;-0.40;82.37;100683.50;10276050;28;20035;-69
2023/10/23 22:58:29;;;;;;;5.18;2.88;;;;;;;-0.40;82.47;100684.34;10261670;29;20043;-69
2023/10/23 23:03:32;;;;;;;3.95;2.35;;;;;;;-0.41;82.75;100698.84;10290763;28;20046;-69
2023/10/23 23:08:40;;;;;;;3.65;2.70;;;;;;;-0.42;82.97;100693.69;10275989;28;20057;-69
2023/10/23 23:13:44;;;;;;;5.32;2.83;;;;;;;-0.47;83.09;100688.91;10255421;29;20031;-70
2023/10/23 23:18:48;;;;;;;5.20;3.53;;;;;;;-0.40;83.24;100680.81;10283150;28;20447;-69
2023/10/23 23:23:50;;;;;;;5.82;3.78;;;;;;;-0.37;82.79;100693.88;10268087;29;20047;-70